sensor_id;sensor_type;location;lat;lon;timestamp;P1;durP1;ratioP1;P2;durP2;ratioP2
23044;SDS011;11690;51.716;23.066;2023-08-06T00:00:09;5.13;;;4.03;;
23044;SDS011;11690;51.716;23.066;2023-08-06T00:02:56;11.63;;;4.35;;
23044;SDS011;11690;51.716;23.066;2023-08-06T00:05:24;8.00;;;5.30;;
23044;SDS011;11690;51.716;23.066;2023-08-06T00:07:51;5.90;;;4.60;;
23044;SDS011;11690;51.716;23.066;2023-08-06T00:10:18;6.03;;;4.50;;
23044;SDS011;11690;51.716;23.066;2023-08-06T00:12:45;7.28;;;4.15;;
23044;SDS011;11690;51.716;23.066;2023-08-06T00:15:13;10.50;;;4.65;;
23044;SDS011;11690;51.716;23.066;2023-08-06T00:17:40;7.90;;;5.15;;
23044;SDS011;11690;51.716;23.066;2023-08-06T00:20:07;6.13;;;4.55;;
23044;SDS011;11690;51.716;23.066;2023-08-06T00:22:35;10.57;;;4.72;;
23044;SDS011;11690;51.716;23.066;2023-08-06T00:25:03;7.25;;;4.10;;
23044;SDS011;11690;51.716;23.066;2023-08-06T00:27:31;5.97;;;4.57;;
23044;SDS011;11690;51.716;23.066;2023-08-06T00:29:59;6.53;;;4.50;;
23044;SDS011;11690;51.716;23.066;2023-08-06T00:32:27;7.90;;;4.60;;
23044;SDS011;11690;51.716;23.066;2023-08-06T00:34:55;6.28;;;4.50;;
23044;SDS011;11690;51.716;23.066;2023-08-06T00:37:22;7.47;;;4.60;;
23044;SDS011;11690;51.716;23.066;2023-08-06T00:39:49;5.20;;;3.88;;
23044;SDS011;11690;51.716;23.066;2023-08-06T00:42:16;7.80;;;4.88;;
23044;SDS011;11690;51.716;23.066;2023-08-06T00:44:47;9.50;;;4.65;;
23044;SDS011;11690;51.716;23.066;2023-08-06T00:47:15;10.57;;;4.50;;
23044;SDS011;11690;51.716;23.066;2023-08-06T00:49:43;10.80;;;5.05;;
23044;SDS011;11690;51.716;23.066;2023-08-06T00:52:10;9.65;;;5.20;;
23044;SDS011;11690;51.716;23.066;2023-08-06T00:54:37;6.35;;;4.63;;
23044;SDS011;11690;51.716;23.066;2023-08-06T00:57:04;9.10;;;5.15;;
23044;SDS011;11690;51.716;23.066;2023-08-06T00:59:33;6.93;;;5.00;;
23044;SDS011;11690;51.716;23.066;2023-08-06T01:02:01;8.93;;;5.25;;
23044;SDS011;11690;51.716;23.066;2023-08-06T01:04:29;10.05;;;5.45;;
23044;SDS011;11690;51.716;23.066;2023-08-06T01:09:57;6.53;;;5.25;;
23044;SDS011;11690;51.716;23.066;2023-08-06T01:12:35;8.63;;;5.22;;
23044;SDS011;11690;51.716;23.066;2023-08-06T01:15:15;7.57;;;5.38;;
23044;SDS011;11690;51.716;23.066;2023-08-06T01:17:46;6.72;;;4.90;;
23044;SDS011;11690;51.716;23.066;2023-08-06T01:20:13;7.85;;;5.40;;
23044;SDS011;11690;51.716;23.066;2023-08-06T01:22:40;11.95;;;5.10;;
23044;SDS011;11690;51.716;23.066;2023-08-06T01:25:08;6.32;;;4.88;;
23044;SDS011;11690;51.716;23.066;2023-08-06T01:27:38;5.80;;;4.93;;
23044;SDS011;11690;51.716;23.066;2023-08-06T01:30:16;6.65;;;5.00;;
23044;SDS011;11690;51.716;23.066;2023-08-06T01:32:46;7.45;;;5.75;;
23044;SDS011;11690;51.716;23.066;2023-08-06T01:35:17;8.98;;;5.28;;
23044;SDS011;11690;51.716;23.066;2023-08-06T01:37:45;7.28;;;5.05;;
23044;SDS011;11690;51.716;23.066;2023-08-06T01:40:13;7.15;;;5.05;;
23044;SDS011;11690;51.716;23.066;2023-08-06T01:42:40;7.43;;;5.22;;
23044;SDS011;11690;51.716;23.066;2023-08-06T01:45:08;6.40;;;5.30;;
23044;SDS011;11690;51.716;23.066;2023-08-06T01:47:35;9.15;;;4.90;;
23044;SDS011;11690;51.716;23.066;2023-08-06T01:50:03;9.15;;;4.90;;
23044;SDS011;11690;51.716;23.066;2023-08-06T01:52:30;8.73;;;5.95;;
23044;SDS011;11690;51.716;23.066;2023-08-06T01:54:58;8.27;;;5.90;;
23044;SDS011;11690;51.716;23.066;2023-08-06T01:57:25;7.18;;;5.50;;
23044;SDS011;11690;51.716;23.066;2023-08-06T01:59:52;9.40;;;4.90;;
23044;SDS011;11690;51.716;23.066;2023-08-06T02:02:19;8.85;;;5.13;;
23044;SDS011;11690;51.716;23.066;2023-08-06T02:04:47;7.97;;;5.35;;
23044;SDS011;11690;51.716;23.066;2023-08-06T02:07:13;8.32;;;5.45;;
23044;SDS011;11690;51.716;23.066;2023-08-06T02:09:41;6.65;;;5.47;;
23044;SDS011;11690;51.716;23.066;2023-08-06T02:12:08;6.53;;;5.10;;
23044;SDS011;11690;51.716;23.066;2023-08-06T02:14:35;8.10;;;5.05;;
23044;SDS011;11690;51.716;23.066;2023-08-06T02:17:02;6.85;;;5.07;;
23044;SDS011;11690;51.716;23.066;2023-08-06T02:19:30;12.32;;;5.30;;
23044;SDS011;11690;51.716;23.066;2023-08-06T02:21:57;8.48;;;4.82;;
23044;SDS011;11690;51.716;23.066;2023-08-06T02:24:24;6.45;;;5.32;;
23044;SDS011;11690;51.716;23.066;2023-08-06T02:26:51;7.15;;;4.65;;
23044;SDS011;11690;51.716;23.066;2023-08-06T02:29:22;7.20;;;5.57;;
23044;SDS011;11690;51.716;23.066;2023-08-06T02:31:49;7.28;;;5.28;;
23044;SDS011;11690;51.716;23.066;2023-08-06T02:34:17;8.48;;;5.43;;
23044;SDS011;11690;51.716;23.066;2023-08-06T02:36:45;6.63;;;5.00;;
23044;SDS011;11690;51.716;23.066;2023-08-06T02:39:13;7.30;;;4.70;;
23044;SDS011;11690;51.716;23.066;2023-08-06T02:41:40;10.05;;;5.30;;
23044;SDS011;11690;51.716;23.066;2023-08-06T02:44:07;6.32;;;4.97;;
23044;SDS011;11690;51.716;23.066;2023-08-06T02:46:34;7.90;;;5.18;;
23044;SDS011;11690;51.716;23.066;2023-08-06T02:49:01;7.88;;;5.72;;
23044;SDS011;11690;51.716;23.066;2023-08-06T02:51:28;6.95;;;5.05;;
23044;SDS011;11690;51.716;23.066;2023-08-06T02:53:56;8.68;;;5.30;;
23044;SDS011;11690;51.716;23.066;2023-08-06T02:56:23;8.50;;;5.53;;
23044;SDS011;11690;51.716;23.066;2023-08-06T02:59:11;6.35;;;5.28;;
23044;SDS011;11690;51.716;23.066;2023-08-06T03:01:56;8.52;;;5.47;;
23044;SDS011;11690;51.716;23.066;2023-08-06T03:04:31;10.05;;;5.50;;
23044;SDS011;11690;51.716;23.066;2023-08-06T03:06:58;7.15;;;5.30;;
23044;SDS011;11690;51.716;23.066;2023-08-06T03:09:33;9.10;;;5.20;;
23044;SDS011;11690;51.716;23.066;2023-08-06T03:12:01;6.15;;;5.22;;
23044;SDS011;11690;51.716;23.066;2023-08-06T03:14:29;9.02;;;5.97;;
23044;SDS011;11690;51.716;23.066;2023-08-06T03:16:56;7.25;;;4.85;;
23044;SDS011;11690;51.716;23.066;2023-08-06T03:19:24;6.00;;;4.97;;
23044;SDS011;11690;51.716;23.066;2023-08-06T03:21:52;7.80;;;5.57;;
23044;SDS011;11690;51.716;23.066;2023-08-06T03:24:21;9.45;;;5.80;;
23044;SDS011;11690;51.716;23.066;2023-08-06T03:26:48;14.25;;;5.88;;
23044;SDS011;11690;51.716;23.066;2023-08-06T03:29:16;7.57;;;6.07;;
23044;SDS011;11690;51.716;23.066;2023-08-06T03:31:43;7.47;;;5.50;;
23044;SDS011;11690;51.716;23.066;2023-08-06T03:34:13;8.32;;;5.53;;
23044;SDS011;11690;51.716;23.066;2023-08-06T03:36:41;13.88;;;5.82;;
23044;SDS011;11690;51.716;23.066;2023-08-06T03:39:08;8.18;;;5.78;;
23044;SDS011;11690;51.716;23.066;2023-08-06T03:41:36;10.48;;;5.65;;
23044;SDS011;11690;51.716;23.066;2023-08-06T03:44:04;7.00;;;5.18;;
23044;SDS011;11690;51.716;23.066;2023-08-06T03:46:31;6.90;;;5.70;;
23044;SDS011;11690;51.716;23.066;2023-08-06T03:49:03;14.23;;;5.68;;
23044;SDS011;11690;51.716;23.066;2023-08-06T03:51:30;8.15;;;5.90;;
23044;SDS011;11690;51.716;23.066;2023-08-06T03:53:57;10.57;;;6.07;;
23044;SDS011;11690;51.716;23.066;2023-08-06T03:56:24;6.55;;;5.43;;
23044;SDS011;11690;51.716;23.066;2023-08-06T03:58:52;10.60;;;5.68;;
23044;SDS011;11690;51.716;23.066;2023-08-06T04:01:19;9.32;;;5.75;;
23044;SDS011;11690;51.716;23.066;2023-08-06T04:03:47;7.70;;;5.65;;
23044;SDS011;11690;51.716;23.066;2023-08-06T04:06:14;8.00;;;5.22;;
23044;SDS011;11690;51.716;23.066;2023-08-06T04:08:42;8.07;;;5.28;;
23044;SDS011;11690;51.716;23.066;2023-08-06T04:11:09;15.95;;;5.53;;
23044;SDS011;11690;51.716;23.066;2023-08-06T04:13:36;6.72;;;5.32;;
23044;SDS011;11690;51.716;23.066;2023-08-06T04:16:03;8.65;;;6.05;;
23044;SDS011;11690;51.716;23.066;2023-08-06T04:18:32;7.50;;;5.53;;
23044;SDS011;11690;51.716;23.066;2023-08-06T04:21:01;11.30;;;4.70;;
23044;SDS011;11690;51.716;23.066;2023-08-06T04:23:28;6.95;;;5.13;;
23044;SDS011;11690;51.716;23.066;2023-08-06T04:25:59;8.68;;;5.47;;
23044;SDS011;11690;51.716;23.066;2023-08-06T04:28:31;6.18;;;4.97;;
23044;SDS011;11690;51.716;23.066;2023-08-06T04:30:59;5.65;;;4.93;;
23044;SDS011;11690;51.716;23.066;2023-08-06T04:33:28;7.43;;;4.70;;
23044;SDS011;11690;51.716;23.066;2023-08-06T04:35:59;6.60;;;4.75;;
23044;SDS011;11690;51.716;23.066;2023-08-06T04:38:27;7.00;;;4.85;;
23044;SDS011;11690;51.716;23.066;2023-08-06T04:40:55;6.15;;;5.03;;
23044;SDS011;11690;51.716;23.066;2023-08-06T04:43:24;6.25;;;4.55;;
23044;SDS011;11690;51.716;23.066;2023-08-06T04:45:53;6.10;;;4.88;;
23044;SDS011;11690;51.716;23.066;2023-08-06T04:48:21;9.55;;;4.60;;
23044;SDS011;11690;51.716;23.066;2023-08-06T04:50:49;5.85;;;4.18;;
23044;SDS011;11690;51.716;23.066;2023-08-06T04:53:17;11.70;;;4.40;;
23044;SDS011;11690;51.716;23.066;2023-08-06T04:55:44;6.90;;;4.45;;
23044;SDS011;11690;51.716;23.066;2023-08-06T04:58:12;7.80;;;4.88;;
23044;SDS011;11690;51.716;23.066;2023-08-06T05:00:39;7.70;;;4.70;;
23044;SDS011;11690;51.716;23.066;2023-08-06T05:03:07;9.05;;;4.65;;
23044;SDS011;11690;51.716;23.066;2023-08-06T05:05:34;6.70;;;4.57;;
23044;SDS011;11690;51.716;23.066;2023-08-06T05:08:01;12.38;;;4.93;;
23044;SDS011;11690;51.716;23.066;2023-08-06T05:10:28;7.32;;;4.85;;
23044;SDS011;11690;51.716;23.066;2023-08-06T05:12:55;6.22;;;4.25;;
23044;SDS011;11690;51.716;23.066;2023-08-06T05:15:23;6.22;;;4.50;;
23044;SDS011;11690;51.716;23.066;2023-08-06T05:17:52;5.18;;;4.20;;
23044;SDS011;11690;51.716;23.066;2023-08-06T05:20:20;6.97;;;4.55;;
23044;SDS011;11690;51.716;23.066;2023-08-06T05:22:47;6.13;;;4.30;;
23044;SDS011;11690;51.716;23.066;2023-08-06T05:25:14;8.63;;;4.78;;
23044;SDS011;11690;51.716;23.066;2023-08-06T05:27:42;7.30;;;4.80;;
23044;SDS011;11690;51.716;23.066;2023-08-06T05:30:09;8.85;;;5.22;;
23044;SDS011;11690;51.716;23.066;2023-08-06T05:32:37;7.20;;;4.78;;
23044;SDS011;11690;51.716;23.066;2023-08-06T05:35:04;6.38;;;4.60;;
23044;SDS011;11690;51.716;23.066;2023-08-06T05:37:33;6.15;;;4.63;;
23044;SDS011;11690;51.716;23.066;2023-08-06T05:40:00;8.77;;;4.50;;
23044;SDS011;11690;51.716;23.066;2023-08-06T05:42:29;5.15;;;4.28;;
23044;SDS011;11690;51.716;23.066;2023-08-06T05:44:56;11.27;;;5.03;;
23044;SDS011;11690;51.716;23.066;2023-08-06T05:47:23;7.75;;;4.72;;
23044;SDS011;11690;51.716;23.066;2023-08-06T05:49:50;6.03;;;4.50;;
23044;SDS011;11690;51.716;23.066;2023-08-06T05:52:18;5.95;;;4.45;;
23044;SDS011;11690;51.716;23.066;2023-08-06T05:54:45;7.10;;;4.72;;
23044;SDS011;11690;51.716;23.066;2023-08-06T05:57:12;4.88;;;4.20;;
23044;SDS011;11690;51.716;23.066;2023-08-06T05:59:40;5.50;;;4.22;;
23044;SDS011;11690;51.716;23.066;2023-08-06T06:02:07;5.53;;;3.85;;
23044;SDS011;11690;51.716;23.066;2023-08-06T06:04:34;11.50;;;4.03;;
23044;SDS011;11690;51.716;23.066;2023-08-06T06:07:02;5.72;;;4.32;;
23044;SDS011;11690;51.716;23.066;2023-08-06T06:09:29;7.55;;;4.60;;
23044;SDS011;11690;51.716;23.066;2023-08-06T06:11:57;8.73;;;4.15;;
23044;SDS011;11690;51.716;23.066;2023-08-06T06:14:24;6.78;;;4.55;;
23044;SDS011;11690;51.716;23.066;2023-08-06T06:16:51;5.07;;;4.20;;
23044;SDS011;11690;51.716;23.066;2023-08-06T06:19:19;7.00;;;4.25;;
23044;SDS011;11690;51.716;23.066;2023-08-06T06:21:47;5.05;;;4.05;;
23044;SDS011;11690;51.716;23.066;2023-08-06T06:24:14;5.60;;;3.97;;
23044;SDS011;11690;51.716;23.066;2023-08-06T06:26:41;5.90;;;4.28;;
23044;SDS011;11690;51.716;23.066;2023-08-06T06:29:08;6.50;;;4.00;;
23044;SDS011;11690;51.716;23.066;2023-08-06T06:31:36;6.45;;;4.13;;
23044;SDS011;11690;51.716;23.066;2023-08-06T06:34:03;7.18;;;3.72;;
23044;SDS011;11690;51.716;23.066;2023-08-06T06:36:30;7.40;;;3.72;;
23044;SDS011;11690;51.716;23.066;2023-08-06T06:38:57;12.43;;;4.03;;
23044;SDS011;11690;51.716;23.066;2023-08-06T06:41:24;4.85;;;3.95;;
23044;SDS011;11690;51.716;23.066;2023-08-06T06:43:53;6.72;;;3.38;;
23044;SDS011;11690;51.716;23.066;2023-08-06T06:46:20;6.55;;;3.42;;
23044;SDS011;11690;51.716;23.066;2023-08-06T06:48:47;5.90;;;3.63;;
23044;SDS011;11690;51.716;23.066;2023-08-06T06:51:14;7.15;;;3.78;;
23044;SDS011;11690;51.716;23.066;2023-08-06T06:53:41;6.32;;;3.67;;
23044;SDS011;11690;51.716;23.066;2023-08-06T06:56:08;4.35;;;3.53;;
23044;SDS011;11690;51.716;23.066;2023-08-06T06:58:36;5.38;;;3.40;;
23044;SDS011;11690;51.716;23.066;2023-08-06T07:01:05;4.45;;;3.50;;
23044;SDS011;11690;51.716;23.066;2023-08-06T07:03:32;5.68;;;3.80;;
23044;SDS011;11690;51.716;23.066;2023-08-06T07:06:00;5.30;;;4.13;;
23044;SDS011;11690;51.716;23.066;2023-08-06T07:08:27;5.60;;;3.97;;
23044;SDS011;11690;51.716;23.066;2023-08-06T07:11:04;4.95;;;3.70;;
23044;SDS011;11690;51.716;23.066;2023-08-06T07:13:33;9.85;;;3.83;;
23044;SDS011;11690;51.716;23.066;2023-08-06T07:16:01;4.00;;;3.53;;
23044;SDS011;11690;51.716;23.066;2023-08-06T07:18:28;9.45;;;3.85;;
23044;SDS011;11690;51.716;23.066;2023-08-06T07:20:56;8.43;;;4.03;;
23044;SDS011;11690;51.716;23.066;2023-08-06T07:23:23;5.35;;;3.75;;
23044;SDS011;11690;51.716;23.066;2023-08-06T07:25:51;4.70;;;3.75;;
23044;SDS011;11690;51.716;23.066;2023-08-06T07:28:19;5.72;;;4.65;;
23044;SDS011;11690;51.716;23.066;2023-08-06T07:30:46;6.05;;;4.13;;
23044;SDS011;11690;51.716;23.066;2023-08-06T07:33:13;5.68;;;3.78;;
23044;SDS011;11690;51.716;23.066;2023-08-06T07:35:41;4.78;;;3.70;;
23044;SDS011;11690;51.716;23.066;2023-08-06T07:38:08;4.93;;;3.60;;
23044;SDS011;11690;51.716;23.066;2023-08-06T07:40:36;3.88;;;3.45;;
23044;SDS011;11690;51.716;23.066;2023-08-06T07:43:04;8.15;;;3.65;;
23044;SDS011;11690;51.716;23.066;2023-08-06T07:45:33;6.07;;;4.28;;
23044;SDS011;11690;51.716;23.066;2023-08-06T07:48:01;7.35;;;3.53;;
23044;SDS011;11690;51.716;23.066;2023-08-06T07:50:29;4.40;;;3.80;;
23044;SDS011;11690;51.716;23.066;2023-08-06T07:52:56;5.57;;;3.42;;
23044;SDS011;11690;51.716;23.066;2023-08-06T07:55:23;5.65;;;3.78;;
23044;SDS011;11690;51.716;23.066;2023-08-06T07:57:51;5.93;;;3.88;;
23044;SDS011;11690;51.716;23.066;2023-08-06T08:00:18;6.00;;;4.20;;
23044;SDS011;11690;51.716;23.066;2023-08-06T08:02:46;5.70;;;3.92;;
23044;SDS011;11690;51.716;23.066;2023-08-06T08:05:13;6.63;;;4.00;;
23044;SDS011;11690;51.716;23.066;2023-08-06T08:07:40;5.47;;;3.75;;
23044;SDS011;11690;51.716;23.066;2023-08-06T08:10:08;4.93;;;4.18;;
23044;SDS011;11690;51.716;23.066;2023-08-06T08:12:35;5.07;;;4.07;;
23044;SDS011;11690;51.716;23.066;2023-08-06T08:15:02;4.82;;;3.92;;
23044;SDS011;11690;51.716;23.066;2023-08-06T08:17:30;5.63;;;3.85;;
23044;SDS011;11690;51.716;23.066;2023-08-06T08:19:57;4.95;;;3.78;;
23044;SDS011;11690;51.716;23.066;2023-08-06T08:22:24;6.72;;;3.78;;
23044;SDS011;11690;51.716;23.066;2023-08-06T08:24:51;4.82;;;3.70;;
23044;SDS011;11690;51.716;23.066;2023-08-06T08:27:19;4.53;;;3.40;;
23044;SDS011;11690;51.716;23.066;2023-08-06T08:29:46;5.45;;;4.30;;
23044;SDS011;11690;51.716;23.066;2023-08-06T08:32:13;4.88;;;3.65;;
23044;SDS011;11690;51.716;23.066;2023-08-06T08:34:40;6.72;;;3.60;;
23044;SDS011;11690;51.716;23.066;2023-08-06T08:37:07;5.55;;;3.95;;
23044;SDS011;11690;51.716;23.066;2023-08-06T08:39:35;4.30;;;3.35;;
23044;SDS011;11690;51.716;23.066;2023-08-06T08:42:02;5.80;;;3.58;;
23044;SDS011;11690;51.716;23.066;2023-08-06T08:44:30;4.88;;;3.67;;
23044;SDS011;11690;51.716;23.066;2023-08-06T08:46:59;5.72;;;3.38;;
23044;SDS011;11690;51.716;23.066;2023-08-06T08:49:26;4.28;;;3.88;;
23044;SDS011;11690;51.716;23.066;2023-08-06T08:51:54;4.90;;;3.90;;
23044;SDS011;11690;51.716;23.066;2023-08-06T08:54:23;6.40;;;3.30;;
23044;SDS011;11690;51.716;23.066;2023-08-06T08:56:50;5.82;;;4.07;;
23044;SDS011;11690;51.716;23.066;2023-08-06T08:59:17;6.22;;;4.28;;
23044;SDS011;11690;51.716;23.066;2023-08-06T09:01:45;4.75;;;3.63;;
23044;SDS011;11690;51.716;23.066;2023-08-06T09:04:17;8.20;;;3.80;;
23044;SDS011;11690;51.716;23.066;2023-08-06T09:06:50;6.07;;;4.18;;
23044;SDS011;11690;51.716;23.066;2023-08-06T09:09:21;5.95;;;4.30;;
23044;SDS011;11690;51.716;23.066;2023-08-06T09:11:51;7.65;;;3.83;;
23044;SDS011;11690;51.716;23.066;2023-08-06T09:14:19;4.85;;;4.00;;
23044;SDS011;11690;51.716;23.066;2023-08-06T09:16:46;5.63;;;4.18;;
23044;SDS011;11690;51.716;23.066;2023-08-06T09:19:13;7.28;;;4.38;;
23044;SDS011;11690;51.716;23.066;2023-08-06T09:21:45;7.93;;;4.65;;
23044;SDS011;11690;51.716;23.066;2023-08-06T09:24:15;6.60;;;4.68;;
23044;SDS011;11690;51.716;23.066;2023-08-06T09:26:44;8.32;;;4.95;;
23044;SDS011;11690;51.716;23.066;2023-08-06T09:29:11;6.00;;;3.92;;
23044;SDS011;11690;51.716;23.066;2023-08-06T09:31:57;7.15;;;3.95;;
23044;SDS011;11690;51.716;23.066;2023-08-06T09:34:25;9.40;;;4.20;;
23044;SDS011;11690;51.716;23.066;2023-08-06T09:36:53;5.93;;;4.05;;
23044;SDS011;11690;51.716;23.066;2023-08-06T09:39:30;7.00;;;4.20;;
23044;SDS011;11690;51.716;23.066;2023-08-06T09:41:58;8.45;;;4.50;;
23044;SDS011;11690;51.716;23.066;2023-08-06T09:44:26;4.85;;;3.92;;
23044;SDS011;11690;51.716;23.066;2023-08-06T09:46:55;5.28;;;4.13;;
23044;SDS011;11690;51.716;23.066;2023-08-06T09:49:42;10.30;;;4.10;;
23044;SDS011;11690;51.716;23.066;2023-08-06T09:52:10;4.28;;;3.58;;
23044;SDS011;11690;51.716;23.066;2023-08-06T09:54:43;11.18;;;3.88;;
23044;SDS011;11690;51.716;23.066;2023-08-06T09:57:11;11.70;;;4.00;;
23044;SDS011;11690;51.716;23.066;2023-08-06T09:59:38;5.32;;;3.40;;
23044;SDS011;11690;51.716;23.066;2023-08-06T10:02:08;4.40;;;3.40;;
23044;SDS011;11690;51.716;23.066;2023-08-06T10:04:39;4.25;;;3.63;;
23044;SDS011;11690;51.716;23.066;2023-08-06T10:07:07;5.70;;;3.75;;
23044;SDS011;11690;51.716;23.066;2023-08-06T10:09:35;8.07;;;3.70;;
23044;SDS011;11690;51.716;23.066;2023-08-06T10:12:02;5.30;;;3.60;;
23044;SDS011;11690;51.716;23.066;2023-08-06T10:14:33;4.90;;;3.55;;
23044;SDS011;11690;51.716;23.066;2023-08-06T10:17:03;5.72;;;3.67;;
23044;SDS011;11690;51.716;23.066;2023-08-06T10:19:30;11.63;;;4.00;;
23044;SDS011;11690;51.716;23.066;2023-08-06T10:22:13;5.38;;;4.05;;
23044;SDS011;11690;51.716;23.066;2023-08-06T10:24:54;5.28;;;3.60;;
23044;SDS011;11690;51.716;23.066;2023-08-06T10:27:27;6.82;;;3.80;;
23044;SDS011;11690;51.716;23.066;2023-08-06T10:29:54;5.00;;;3.80;;
23044;SDS011;11690;51.716;23.066;2023-08-06T10:32:46;7.72;;;3.97;;
23044;SDS011;11690;51.716;23.066;2023-08-06T10:38:04;6.22;;;4.07;;
23044;SDS011;11690;51.716;23.066;2023-08-06T10:40:33;6.32;;;3.83;;
23044;SDS011;11690;51.716;23.066;2023-08-06T10:43:03;7.15;;;3.90;;
23044;SDS011;11690;51.716;23.066;2023-08-06T10:45:30;4.05;;;3.45;;
23044;SDS011;11690;51.716;23.066;2023-08-06T10:48:01;4.45;;;3.60;;
23044;SDS011;11690;51.716;23.066;2023-08-06T10:50:29;5.13;;;4.20;;
23044;SDS011;11690;51.716;23.066;2023-08-06T10:53:03;5.40;;;3.45;;
23044;SDS011;11690;51.716;23.066;2023-08-06T10:55:31;6.30;;;3.33;;
23044;SDS011;11690;51.716;23.066;2023-08-06T10:57:59;6.85;;;3.78;;
23044;SDS011;11690;51.716;23.066;2023-08-06T11:00:26;4.25;;;3.75;;
23044;SDS011;11690;51.716;23.066;2023-08-06T11:02:53;5.75;;;4.00;;
23044;SDS011;11690;51.716;23.066;2023-08-06T11:05:21;5.40;;;3.60;;
23044;SDS011;11690;51.716;23.066;2023-08-06T11:07:49;6.57;;;3.72;;
23044;SDS011;11690;51.716;23.066;2023-08-06T11:10:18;5.32;;;3.70;;
23044;SDS011;11690;51.716;23.066;2023-08-06T11:12:45;5.10;;;3.53;;
23044;SDS011;11690;51.716;23.066;2023-08-06T11:15:12;5.90;;;3.88;;
23044;SDS011;11690;51.716;23.066;2023-08-06T11:17:40;5.82;;;3.55;;
23044;SDS011;11690;51.716;23.066;2023-08-06T11:20:08;8.68;;;3.80;;
23044;SDS011;11690;51.716;23.066;2023-08-06T11:22:36;5.80;;;3.95;;
23044;SDS011;11690;51.716;23.066;2023-08-06T11:25:04;9.98;;;3.53;;
23044;SDS011;11690;51.716;23.066;2023-08-06T11:27:32;4.95;;;3.78;;
23044;SDS011;11690;51.716;23.066;2023-08-06T11:30:00;6.15;;;3.88;;
23044;SDS011;11690;51.716;23.066;2023-08-06T11:32:27;5.75;;;3.28;;
23044;SDS011;11690;51.716;23.066;2023-08-06T11:34:55;4.18;;;2.95;;
23044;SDS011;11690;51.716;23.066;2023-08-06T11:37:23;7.30;;;3.33;;
23044;SDS011;11690;51.716;23.066;2023-08-06T11:39:53;7.72;;;3.40;;
23044;SDS011;11690;51.716;23.066;2023-08-06T11:42:20;5.50;;;3.20;;
23044;SDS011;11690;51.716;23.066;2023-08-06T11:44:47;3.95;;;3.10;;
23044;SDS011;11690;51.716;23.066;2023-08-06T11:47:16;6.28;;;3.85;;
23044;SDS011;11690;51.716;23.066;2023-08-06T11:49:44;4.90;;;3.45;;
23044;SDS011;11690;51.716;23.066;2023-08-06T11:52:15;4.40;;;3.50;;
23044;SDS011;11690;51.716;23.066;2023-08-06T11:55:02;7.93;;;3.50;;
23044;SDS011;11690;51.716;23.066;2023-08-06T11:57:39;6.00;;;3.13;;
23044;SDS011;11690;51.716;23.066;2023-08-06T12:00:12;3.88;;;3.47;;
23044;SDS011;11690;51.716;23.066;2023-08-06T12:02:43;10.63;;;3.75;;
23044;SDS011;11690;51.716;23.066;2023-08-06T12:05:11;6.05;;;3.80;;
23044;SDS011;11690;51.716;23.066;2023-08-06T12:07:42;11.77;;;3.58;;
23044;SDS011;11690;51.716;23.066;2023-08-06T12:10:13;5.57;;;3.50;;
23044;SDS011;11690;51.716;23.066;2023-08-06T12:12:41;3.95;;;3.08;;
23044;SDS011;11690;51.716;23.066;2023-08-06T12:15:09;9.07;;;3.60;;
23044;SDS011;11690;51.716;23.066;2023-08-06T12:17:37;4.95;;;3.50;;
23044;SDS011;11690;51.716;23.066;2023-08-06T12:20:05;3.88;;;3.17;;
23044;SDS011;11690;51.716;23.066;2023-08-06T12:22:34;6.88;;;2.97;;
23044;SDS011;11690;51.716;23.066;2023-08-06T12:25:05;5.10;;;3.50;;
23044;SDS011;11690;51.716;23.066;2023-08-06T12:27:35;6.75;;;3.25;;
23044;SDS011;11690;51.716;23.066;2023-08-06T12:30:03;6.57;;;3.60;;
23044;SDS011;11690;51.716;23.066;2023-08-06T12:32:31;7.03;;;3.50;;
23044;SDS011;11690;51.716;23.066;2023-08-06T12:34:58;8.10;;;3.75;;
23044;SDS011;11690;51.716;23.066;2023-08-06T12:37:26;5.65;;;3.35;;
23044;SDS011;11690;51.716;23.066;2023-08-06T12:39:53;5.95;;;3.92;;
23044;SDS011;11690;51.716;23.066;2023-08-06T12:42:20;5.82;;;4.03;;
23044;SDS011;11690;51.716;23.066;2023-08-06T12:44:50;6.07;;;3.65;;
23044;SDS011;11690;51.716;23.066;2023-08-06T12:47:18;7.97;;;4.20;;
23044;SDS011;11690;51.716;23.066;2023-08-06T12:49:46;5.38;;;4.05;;
23044;SDS011;11690;51.716;23.066;2023-08-06T12:52:14;7.47;;;3.70;;
23044;SDS011;11690;51.716;23.066;2023-08-06T12:54:42;4.07;;;3.45;;
23044;SDS011;11690;51.716;23.066;2023-08-06T12:57:09;9.32;;;3.33;;
23044;SDS011;11690;51.716;23.066;2023-08-06T12:59:36;5.40;;;3.90;;
23044;SDS011;11690;51.716;23.066;2023-08-06T13:02:04;7.15;;;3.72;;
23044;SDS011;11690;51.716;23.066;2023-08-06T13:04:31;4.28;;;3.67;;
23044;SDS011;11690;51.716;23.066;2023-08-06T13:07:00;4.68;;;3.25;;
23044;SDS011;11690;51.716;23.066;2023-08-06T13:09:27;7.35;;;3.05;;
23044;SDS011;11690;51.716;23.066;2023-08-06T13:11:58;7.00;;;3.30;;
23044;SDS011;11690;51.716;23.066;2023-08-06T13:14:27;6.03;;;3.20;;
23044;SDS011;11690;51.716;23.066;2023-08-06T13:16:55;4.68;;;3.10;;
23044;SDS011;11690;51.716;23.066;2023-08-06T13:19:23;5.85;;;3.25;;
23044;SDS011;11690;51.716;23.066;2023-08-06T13:24:17;5.97;;;3.25;;
23044;SDS011;11690;51.716;23.066;2023-08-06T13:26:46;6.22;;;3.25;;
23044;SDS011;11690;51.716;23.066;2023-08-06T13:29:13;11.05;;;3.38;;
23044;SDS011;11690;51.716;23.066;2023-08-06T13:31:40;5.53;;;2.90;;
23044;SDS011;11690;51.716;23.066;2023-08-06T13:34:07;7.72;;;3.47;;
23044;SDS011;11690;51.716;23.066;2023-08-06T13:36:35;6.13;;;3.50;;
23044;SDS011;11690;51.716;23.066;2023-08-06T13:39:02;14.30;;;3.67;;
23044;SDS011;11690;51.716;23.066;2023-08-06T13:41:32;6.78;;;4.45;;
23044;SDS011;11690;51.716;23.066;2023-08-06T13:43:59;7.60;;;3.40;;
23044;SDS011;11690;51.716;23.066;2023-08-06T13:46:26;5.90;;;3.30;;
23044;SDS011;11690;51.716;23.066;2023-08-06T13:48:53;3.50;;;2.65;;
23044;SDS011;11690;51.716;23.066;2023-08-06T13:51:20;4.05;;;3.10;;
23044;SDS011;11690;51.716;23.066;2023-08-06T13:53:47;3.80;;;3.15;;
23044;SDS011;11690;51.716;23.066;2023-08-06T13:56:15;5.43;;;3.30;;
23044;SDS011;11690;51.716;23.066;2023-08-06T13:58:44;4.03;;;2.75;;
23044;SDS011;11690;51.716;23.066;2023-08-06T14:01:12;4.93;;;2.97;;
23044;SDS011;11690;51.716;23.066;2023-08-06T14:03:40;4.55;;;2.92;;
23044;SDS011;11690;51.716;23.066;2023-08-06T14:06:07;6.00;;;2.95;;
23044;SDS011;11690;51.716;23.066;2023-08-06T14:08:34;4.57;;;3.40;;
23044;SDS011;11690;51.716;23.066;2023-08-06T14:11:02;5.47;;;2.95;;
23044;SDS011;11690;51.716;23.066;2023-08-06T14:13:29;6.55;;;2.50;;
23044;SDS011;11690;51.716;23.066;2023-08-06T14:15:56;5.25;;;2.40;;
23044;SDS011;11690;51.716;23.066;2023-08-06T14:18:23;4.68;;;2.10;;
23044;SDS011;11690;51.716;23.066;2023-08-06T14:20:51;3.72;;;2.17;;
23044;SDS011;11690;51.716;23.066;2023-08-06T14:23:18;1.98;;;1.33;;
23044;SDS011;11690;51.716;23.066;2023-08-06T14:25:45;6.28;;;1.75;;
23044;SDS011;11690;51.716;23.066;2023-08-06T14:28:12;2.28;;;1.67;;
23044;SDS011;11690;51.716;23.066;2023-08-06T14:30:39;3.55;;;1.73;;
23044;SDS011;11690;51.716;23.066;2023-08-06T14:33:06;1.92;;;1.60;;
23044;SDS011;11690;51.716;23.066;2023-08-06T14:35:52;3.28;;;1.70;;
23044;SDS011;11690;51.716;23.066;2023-08-06T14:38:20;2.40;;;1.70;;
23044;SDS011;11690;51.716;23.066;2023-08-06T14:40:47;2.50;;;1.60;;
23044;SDS011;11690;51.716;23.066;2023-08-06T14:43:14;2.17;;;1.63;;
23044;SDS011;11690;51.716;23.066;2023-08-06T14:45:42;3.17;;;1.90;;
23044;SDS011;11690;51.716;23.066;2023-08-06T14:48:09;3.50;;;2.28;;